sensor_id;sensor_type;location;lat;lon;timestamp;pressure;altitude;pressure_sealevel;temperature;humidity
49122;BME280;35529;44.342;25.944;2022-12-18T00:01:25;101377.47;;;4.46;100.00
49122;BME280;35529;44.342;25.944;2022-12-18T00:03:52;101389.94;;;4.44;100.00
49122;BME280;35529;44.342;25.944;2022-12-18T00:06:19;101392.56;;;4.44;100.00
49122;BME280;35529;44.342;25.944;2022-12-18T00:08:45;101389.22;;;4.42;100.00
49122;BME280;35529;44.342;25.944;2022-12-18T00:11:13;101396.88;;;4.45;100.00
49122;BME280;35529;44.342;25.944;2022-12-18T00:13:40;101391.59;;;4.45;100.00
49122;BME280;35529;44.342;25.944;2022-12-18T00:16:07;101397.97;;;4.42;100.00
49122;BME280;35529;44.342;25.944;2022-12-18T00:18:34;101399.06;;;4.40;100.00
49122;BME280;35529;44.342;25.944;2022-12-18T00:21:01;101408.84;;;4.38;100.00
49122;BME280;35529;44.342;25.944;2022-12-18T00:23:28;101419.25;;;4.39;100.00
49122;BME280;35529;44.342;25.944;2022-12-18T00:25:58;101428.34;;;4.35;100.00
49122;BME280;35529;44.342;25.944;2022-12-18T00:28:24;101430.16;;;4.34;100.00
49122;BME280;35529;44.342;25.944;2022-12-18T00:30:50;101427.81;;;4.31;100.00
49122;BME280;35529;44.342;25.944;2022-12-18T00:33:17;101425.88;;;4.33;100.00
49122;BME280;35529;44.342;25.944;2022-12-18T00:35:43;101428.91;;;4.29;100.00
49122;BME280;35529;44.342;25.944;2022-12-18T00:38:10;101444.41;;;4.32;100.00
49122;BME280;35529;44.342;25.944;2022-12-18T00:40:36;101434.47;;;4.35;100.00
49122;BME280;35529;44.342;25.944;2022-12-18T00:43:02;101448.84;;;4.31;100.00
49122;BME280;35529;44.342;25.944;2022-12-18T00:45:30;101453.25;;;4.31;100.00
49122;BME280;35529;44.342;25.944;2022-12-18T00:47:56;101454.22;;;4.30;100.00
49122;BME280;35529;44.342;25.944;2022-12-18T00:50:23;101467.94;;;4.33;100.00
49122;BME280;35529;44.342;25.944;2022-12-18T00:52:49;101472.09;;;4.36;100.00
49122;BME280;35529;44.342;25.944;2022-12-18T00:55:15;101473.50;;;4.40;100.00
49122;BME280;35529;44.342;25.944;2022-12-18T00:57:42;101482.47;;;4.38;100.00
49122;BME280;35529;44.342;25.944;2022-12-18T01:00:10;101485.38;;;4.34;100.00
49122;BME280;35529;44.342;25.944;2022-12-18T01:02:38;101493.72;;;4.40;100.00
49122;BME280;35529;44.342;25.944;2022-12-18T01:05:04;101504.91;;;4.42;100.00
49122;BME280;35529;44.342;25.944;2022-12-18T01:07:31;101500.25;;;4.45;100.00
49122;BME280;35529;44.342;25.944;2022-12-18T01:09:57;101509.84;;;4.56;100.00
49122;BME280;35529;44.342;25.944;2022-12-18T01:12:23;101508.91;;;4.67;100.00
49122;BME280;35529;44.342;25.944;2022-12-18T01:14:51;101513.66;;;4.73;100.00
49122;BME280;35529;44.342;25.944;2022-12-18T01:17:17;101512.44;;;4.77;100.00
49122;BME280;35529;44.342;25.944;2022-12-18T01:19:43;101515.88;;;4.78;100.00
49122;BME280;35529;44.342;25.944;2022-12-18T01:22:09;101518.25;;;4.81;100.00
49122;BME280;35529;44.342;25.944;2022-12-18T01:24:35;101517.41;;;4.80;100.00
49122;BME280;35529;44.342;25.944;2022-12-18T01:27:01;101510.91;;;4.84;100.00
49122;BME280;35529;44.342;25.944;2022-12-18T01:29:27;101506.09;;;4.90;100.00
49122;BME280;35529;44.342;25.944;2022-12-18T01:31:54;101510.84;;;4.96;100.00
49122;BME280;35529;44.342;25.944;2022-12-18T01:34:21;101514.28;;;4.96;100.00
49122;BME280;35529;44.342;25.944;2022-12-18T01:36:47;101521.53;;;5.04;100.00
49122;BME280;35529;44.342;25.944;2022-12-18T01:39:13;101519.84;;;5.03;100.00
49122;BME280;35529;44.342;25.944;2022-12-18T01:41:40;101527.91;;;5.11;100.00
49122;BME280;35529;44.342;25.944;2022-12-18T01:47:12;101528.34;;;5.26;100.00
49122;BME280;35529;44.342;25.944;2022-12-18T01:49:39;101530.03;;;5.27;100.00
49122;BME280;35529;44.342;25.944;2022-12-18T01:52:05;101526.56;;;5.36;100.00
49122;BME280;35529;44.342;25.944;2022-12-18T01:54:31;101530.75;;;5.39;100.00
49122;BME280;35529;44.342;25.944;2022-12-18T01:56:58;101537.25;;;5.45;100.00
49122;BME280;35529;44.342;25.944;2022-12-18T01:59:24;101548.75;;;5.34;100.00
49122;BME280;35529;44.342;25.944;2022-12-18T02:01:50;101541.09;;;5.21;100.00
49122;BME280;35529;44.342;25.944;2022-12-18T02:04:22;101536.38;;;5.15;100.00
49122;BME280;35529;44.342;25.944;2022-12-18T02:06:50;101549.25;;;5.08;100.00
49122;BME280;35529;44.342;25.944;2022-12-18T02:09:20;101559.34;;;5.03;100.00
49122;BME280;35529;44.342;25.944;2022-12-18T02:11:53;101572.91;;;4.98;100.00
49122;BME280;35529;44.342;25.944;2022-12-18T02:24:58;101565.66;;;4.91;100.00
49122;BME280;35529;44.342;25.944;2022-12-18T02:27:25;101575.47;;;4.89;100.00
49122;BME280;35529;44.342;25.944;2022-12-18T02:29:53;101571.44;;;4.84;100.00
49122;BME280;35529;44.342;25.944;2022-12-18T02:32:22;101581.84;;;4.86;100.00
49122;BME280;35529;44.342;25.944;2022-12-18T02:34:51;101577.16;;;4.90;100.00
49122;BME280;35529;44.342;25.944;2022-12-18T02:37:18;101585.22;;;4.98;100.00
49122;BME280;35529;44.342;25.944;2022-12-18T02:39:46;101578.69;;;4.92;100.00
49122;BME280;35529;44.342;25.944;2022-12-18T02:42:13;101578.97;;;4.89;100.00
49122;BME280;35529;44.342;25.944;2022-12-18T02:44:43;101583.94;;;4.92;100.00
49122;BME280;35529;44.342;25.944;2022-12-18T02:47:10;101588.41;;;4.92;100.00
49122;BME280;35529;44.342;25.944;2022-12-18T02:52:11;101596.94;;;4.84;100.00
49122;BME280;35529;44.342;25.944;2022-12-18T02:57:29;101611.56;;;4.77;100.00
49122;BME280;35529;44.342;25.944;2022-12-18T03:00:06;101619.34;;;4.78;100.00
49122;BME280;35529;44.342;25.944;2022-12-18T03:02:36;101612.41;;;4.77;100.00
49122;BME280;35529;44.342;25.944;2022-12-18T03:07:37;101627.34;;;4.77;100.00
49122;BME280;35529;44.342;25.944;2022-12-18T03:10:05;101625.47;;;4.89;100.00
49122;BME280;35529;44.342;25.944;2022-12-18T03:12:34;101644.75;;;4.89;100.00
49122;BME280;35529;44.342;25.944;2022-12-18T03:17:31;101652.41;;;5.02;100.00
49122;BME280;35529;44.342;25.944;2022-12-18T03:19:58;101650.56;;;4.93;100.00
49122;BME280;35529;44.342;25.944;2022-12-18T03:22:26;101642.34;;;4.86;100.00
49122;BME280;35529;44.342;25.944;2022-12-18T03:24:54;101647.13;;;4.92;100.00
49122;BME280;35529;44.342;25.944;2022-12-18T03:27:22;101650.19;;;4.97;100.00
49122;BME280;35529;44.342;25.944;2022-12-18T03:29:54;101660.44;;;5.00;100.00
49122;BME280;35529;44.342;25.944;2022-12-18T03:32:25;101655.19;;;5.00;100.00
49122;BME280;35529;44.342;25.944;2022-12-18T03:34:55;101659.88;;;4.97;100.00
49122;BME280;35529;44.342;25.944;2022-12-18T03:37:24;101666.50;;;4.91;100.00
49122;BME280;35529;44.342;25.944;2022-12-18T03:39:50;101663.22;;;4.99;100.00
49122;BME280;35529;44.342;25.944;2022-12-18T03:52:40;101689.84;;;5.06;100.00
49122;BME280;35529;44.342;25.944;2022-12-18T03:55:08;101688.44;;;5.01;100.00
49122;BME280;35529;44.342;25.944;2022-12-18T03:57:35;101699.25;;;4.98;100.00
49122;BME280;35529;44.342;25.944;2022-12-18T04:00:07;101715.59;;;5.02;100.00
49122;BME280;35529;44.342;25.944;2022-12-18T04:02:33;101712.50;;;4.97;100.00
49122;BME280;35529;44.342;25.944;2022-12-18T04:05:01;101707.06;;;4.89;100.00
49122;BME280;35529;44.342;25.944;2022-12-18T04:07:28;101709.88;;;4.97;100.00
49122;BME280;35529;44.342;25.944;2022-12-18T04:09:55;101706.41;;;4.96;100.00
49122;BME280;35529;44.342;25.944;2022-12-18T04:12:25;101714.50;;;5.04;100.00
49122;BME280;35529;44.342;25.944;2022-12-18T04:14:52;101720.50;;;5.07;100.00
49122;BME280;35529;44.342;25.944;2022-12-18T04:17:18;101724.97;;;4.95;100.00
49122;BME280;35529;44.342;25.944;2022-12-18T04:19:44;101741.72;;;4.94;100.00
49122;BME280;35529;44.342;25.944;2022-12-18T04:22:10;101748.59;;;4.85;100.00
49122;BME280;35529;44.342;25.944;2022-12-18T04:24:36;101756.38;;;4.86;100.00
49122;BME280;35529;44.342;25.944;2022-12-18T04:27:03;101761.19;;;4.81;100.00
49122;BME280;35529;44.342;25.944;2022-12-18T04:29:29;101761.78;;;4.85;100.00
49122;BME280;35529;44.342;25.944;2022-12-18T04:31:55;101772.16;;;4.86;100.00
49122;BME280;35529;44.342;25.944;2022-12-18T04:34:21;101773.44;;;4.92;100.00
49122;BME280;35529;44.342;25.944;2022-12-18T04:36:47;101769.19;;;5.01;100.00
49122;BME280;35529;44.342;25.944;2022-12-18T04:39:14;101781.81;;;4.97;100.00
49122;BME280;35529;44.342;25.944;2022-12-18T04:41:43;101796.25;;;5.03;100.00
49122;BME280;35529;44.342;25.944;2022-12-18T04:44:09;101780.31;;;5.04;100.00
49122;BME280;35529;44.342;25.944;2022-12-18T04:46:35;101785.25;;;4.98;100.00
49122;BME280;35529;44.342;25.944;2022-12-18T04:49:01;101789.09;;;4.94;100.00
49122;BME280;35529;44.342;25.944;2022-12-18T04:51:27;101794.00;;;4.98;100.00
49122;BME280;35529;44.342;25.944;2022-12-18T04:53:53;101803.41;;;5.01;100.00
49122;BME280;35529;44.342;25.944;2022-12-18T04:56:19;101790.06;;;4.93;100.00
49122;BME280;35529;44.342;25.944;2022-12-18T04:58:45;101801.66;;;4.90;100.00
49122;BME280;35529;44.342;25.944;2022-12-18T05:01:12;101820.56;;;4.95;100.00
49122;BME280;35529;44.342;25.944;2022-12-18T05:03:39;101821.91;;;4.90;100.00
49122;BME280;35529;44.342;25.944;2022-12-18T05:06:05;101828.75;;;4.81;100.00
49122;BME280;35529;44.342;25.944;2022-12-18T05:08:32;101828.50;;;4.84;100.00
49122;BME280;35529;44.342;25.944;2022-12-18T05:10:59;101830.19;;;4.85;100.00
49122;BME280;35529;44.342;25.944;2022-12-18T05:13:25;101838.44;;;4.80;100.00
49122;BME280;35529;44.342;25.944;2022-12-18T05:15:52;101847.88;;;4.83;100.00
49122;BME280;35529;44.342;25.944;2022-12-18T05:18:18;101855.53;;;4.86;100.00
49122;BME280;35529;44.342;25.944;2022-12-18T05:20:45;101859.91;;;4.97;100.00
49122;BME280;35529;44.342;25.944;2022-12-18T05:23:11;101858.69;;;5.01;100.00
49122;BME280;35529;44.342;25.944;2022-12-18T05:25:37;101864.28;;;4.86;100.00
49122;BME280;35529;44.342;25.944;2022-12-18T05:28:03;101872.78;;;4.79;100.00
49122;BME280;35529;44.342;25.944;2022-12-18T05:30:29;101874.69;;;4.77;100.00
49122;BME280;35529;44.342;25.944;2022-12-18T05:32:55;101879.38;;;4.73;100.00
49122;BME280;35529;44.342;25.944;2022-12-18T05:35:21;101890.38;;;4.78;100.00
49122;BME280;35529;44.342;25.944;2022-12-18T05:37:47;101888.34;;;4.59;100.00
49122;BME280;35529;44.342;25.944;2022-12-18T05:40:13;101881.88;;;4.63;100.00
49122;BME280;35529;44.342;25.944;2022-12-18T05:42:40;101887.03;;;4.76;100.00
49122;BME280;35529;44.342;25.944;2022-12-18T05:45:06;101887.50;;;4.81;100.00
49122;BME280;35529;44.342;25.944;2022-12-18T05:47:32;101885.19;;;4.88;100.00
49122;BME280;35529;44.342;25.944;2022-12-18T05:49:58;101876.34;;;4.89;100.00
49122;BME280;35529;44.342;25.944;2022-12-18T05:52:24;101884.00;;;4.92;100.00
49122;BME280;35529;44.342;25.944;2022-12-18T05:54:50;101893.91;;;5.00;100.00
49122;BME280;35529;44.342;25.944;2022-12-18T05:57:16;101891.84;;;5.03;100.00
49122;BME280;35529;44.342;25.944;2022-12-18T05:59:42;101889.19;;;5.03;100.00
49122;BME280;35529;44.342;25.944;2022-12-18T06:02:08;101902.38;;;5.03;100.00
49122;BME280;35529;44.342;25.944;2022-12-18T06:04:35;101913.88;;;5.02;100.00
49122;BME280;35529;44.342;25.944;2022-12-18T06:07:01;101920.22;;;5.00;100.00
49122;BME280;35529;44.342;25.944;2022-12-18T06:09:30;101922.59;;;5.03;100.00
49122;BME280;35529;44.342;25.944;2022-12-18T06:11:56;101923.69;;;5.00;100.00
49122;BME280;35529;44.342;25.944;2022-12-18T06:14:22;101921.19;;;4.99;100.00
49122;BME280;35529;44.342;25.944;2022-12-18T06:16:49;101933.75;;;4.95;100.00
49122;BME280;35529;44.342;25.944;2022-12-18T06:19:16;101931.63;;;4.89;100.00
49122;BME280;35529;44.342;25.944;2022-12-18T06:21:42;101936.03;;;4.89;100.00
49122;BME280;35529;44.342;25.944;2022-12-18T06:24:08;101940.69;;;4.96;100.00
49122;BME280;35529;44.342;25.944;2022-12-18T06:26:36;101953.22;;;5.04;100.00
49122;BME280;35529;44.342;25.944;2022-12-18T06:29:02;101955.75;;;5.06;100.00
49122;BME280;35529;44.342;25.944;2022-12-18T06:31:28;101956.69;;;5.04;100.00
49122;BME280;35529;44.342;25.944;2022-12-18T06:33:54;101966.88;;;5.09;100.00
49122;BME280;35529;44.342;25.944;2022-12-18T06:36:21;101974.59;;;5.22;100.00
49122;BME280;35529;44.342;25.944;2022-12-18T06:38:47;101985.94;;;5.34;100.00
49122;BME280;35529;44.342;25.944;2022-12-18T06:41:14;101986.41;;;5.39;100.00
49122;BME280;35529;44.342;25.944;2022-12-18T06:43:40;101997.19;;;5.36;100.00
49122;BME280;35529;44.342;25.944;2022-12-18T06:46:07;101999.84;;;5.36;100.00
49122;BME280;35529;44.342;25.944;2022-12-18T06:48:33;102004.13;;;5.37;100.00
49122;BME280;35529;44.342;25.944;2022-12-18T06:50:59;102002.81;;;5.43;100.00
49122;BME280;35529;44.342;25.944;2022-12-18T06:53:25;102018.09;;;5.49;100.00
49122;BME280;35529;44.342;25.944;2022-12-18T06:55:51;102017.88;;;5.52;100.00
49122;BME280;35529;44.342;25.944;2022-12-18T06:58:18;102022.88;;;5.55;100.00
49122;BME280;35529;44.342;25.944;2022-12-18T07:00:44;102026.53;;;5.64;100.00
49122;BME280;35529;44.342;25.944;2022-12-18T07:03:10;102012.41;;;5.65;100.00
49122;BME280;35529;44.342;25.944;2022-12-18T07:05:39;102024.75;;;5.64;100.00
49122;BME280;35529;44.342;25.944;2022-12-18T07:08:05;102029.91;;;5.66;100.00
49122;BME280;35529;44.342;25.944;2022-12-18T07:10:32;102029.78;;;5.67;100.00
49122;BME280;35529;44.342;25.944;2022-12-18T07:12:58;102023.69;;;5.56;100.00
49122;BME280;35529;44.342;25.944;2022-12-18T07:15:24;102045.41;;;5.48;100.00
49122;BME280;35529;44.342;25.944;2022-12-18T07:17:50;102038.47;;;5.47;100.00
49122;BME280;35529;44.342;25.944;2022-12-18T07:20:17;102061.31;;;5.46;100.00
49122;BME280;35529;44.342;25.944;2022-12-18T07:22:43;102047.94;;;5.49;100.00
49122;BME280;35529;44.342;25.944;2022-12-18T07:25:09;102058.34;;;5.51;100.00
49122;BME280;35529;44.342;25.944;2022-12-18T07:27:35;102063.47;;;5.52;100.00
49122;BME280;35529;44.342;25.944;2022-12-18T07:30:01;102068.88;;;5.51;100.00
49122;BME280;35529;44.342;25.944;2022-12-18T07:32:27;102070.56;;;5.52;100.00
49122;BME280;35529;44.342;25.944;2022-12-18T07:34:53;102075.81;;;5.52;100.00
49122;BME280;35529;44.342;25.944;2022-12-18T07:37:19;102089.34;;;5.59;100.00
49122;BME280;35529;44.342;25.944;2022-12-18T07:39:45;102087.78;;;5.56;100.00
49122;BME280;35529;44.342;25.944;2022-12-18T07:42:11;102101.44;;;5.61;100.00
49122;BME280;35529;44.342;25.944;2022-12-18T07:44:56;102105.50;;;5.65;100.00
49122;BME280;35529;44.342;25.944;2022-12-18T07:47:22;102108.47;;;5.72;100.00
49122;BME280;35529;44.342;25.944;2022-12-18T07:49:48;102107.88;;;5.68;100.00
49122;BME280;35529;44.342;25.944;2022-12-18T07:52:14;102114.81;;;5.69;100.00
49122;BME280;35529;44.342;25.944;2022-12-18T07:54:41;102118.91;;;5.62;100.00
49122;BME280;35529;44.342;25.944;2022-12-18T07:57:07;102112.19;;;5.58;100.00
49122;BME280;35529;44.342;25.944;2022-12-18T07:59:33;102117.47;;;5.58;100.00
49122;BME280;35529;44.342;25.944;2022-12-18T08:01:59;102141.53;;;5.65;100.00
49122;BME280;35529;44.342;25.944;2022-12-18T08:04:25;102140.97;;;5.61;100.00
49122;BME280;35529;44.342;25.944;2022-12-18T08:06:52;102143.00;;;5.58;100.00
49122;BME280;35529;44.342;25.944;2022-12-18T08:09:18;102153.06;;;5.52;100.00
49122;BME280;35529;44.342;25.944;2022-12-18T08:11:44;102162.38;;;5.57;100.00
49122;BME280;35529;44.342;25.944;2022-12-18T08:14:10;102166.84;;;5.56;100.00
49122;BME280;35529;44.342;25.944;2022-12-18T08:16:36;102177.50;;;5.54;100.00
49122;BME280;35529;44.342;25.944;2022-12-18T08:19:02;102178.66;;;5.50;100.00
49122;BME280;35529;44.342;25.944;2022-12-18T08:21:29;102181.31;;;5.50;100.00
49122;BME280;35529;44.342;25.944;2022-12-18T08:23:56;102177.59;;;5.53;100.00
49122;BME280;35529;44.342;25.944;2022-12-18T08:26:23;102179.75;;;5.59;100.00
49122;BME280;35529;44.342;25.944;2022-12-18T08:28:50;102170.53;;;5.65;100.00
49122;BME280;35529;44.342;25.944;2022-12-18T08:31:17;102174.97;;;5.64;100.00
49122;BME280;35529;44.342;25.944;2022-12-18T08:33:43;102179.03;;;5.68;100.00
49122;BME280;35529;44.342;25.944;2022-12-18T08:36:09;102181.19;;;5.75;100.00
49122;BME280;35529;44.342;25.944;2022-12-18T08:38:35;102184.28;;;5.80;100.00
49122;BME280;35529;44.342;25.944;2022-12-18T08:41:02;102189.53;;;5.80;100.00
49122;BME280;35529;44.342;25.944;2022-12-18T08:43:29;102182.13;;;5.74;100.00
49122;BME280;35529;44.342;25.944;2022-12-18T08:46:17;102181.41;;;5.71;100.00
49122;BME280;35529;44.342;25.944;2022-12-18T08:48:43;102186.69;;;5.71;100.00
49122;BME280;35529;44.342;25.944;2022-12-18T08:51:09;102182.38;;;5.70;100.00
49122;BME280;35529;44.342;25.944;2022-12-18T08:53:36;102179.25;;;5.77;100.00
49122;BME280;35529;44.342;25.944;2022-12-18T08:56:02;102187.41;;;5.74;100.00
49122;BME280;35529;44.342;25.944;2022-12-18T08:58:29;102187.28;;;5.75;100.00
49122;BME280;35529;44.342;25.944;2022-12-18T09:01:02;102188.38;;;5.73;100.00
49122;BME280;35529;44.342;25.944;2022-12-18T09:03:28;102187.75;;;5.80;100.00
49122;BME280;35529;44.342;25.944;2022-12-18T09:05:54;102189.06;;;5.86;100.00
49122;BME280;35529;44.342;25.944;2022-12-18T09:08:20;102178.84;;;5.93;100.00
49122;BME280;35529;44.342;25.944;2022-12-18T09:10:47;102179.69;;;5.93;100.00
49122;BME280;35529;44.342;25.944;2022-12-18T09:13:13;102185.22;;;5.90;100.00
49122;BME280;35529;44.342;25.944;2022-12-18T09:15:41;102184.63;;;5.86;100.00
49122;BME280;35529;44.342;25.944;2022-12-18T09:18:07;102186.69;;;5.83;100.00
49122;BME280;35529;44.342;25.944;2022-12-18T09:20:35;102173.50;;;5.83;100.00
49122;BME280;35529;44.342;25.944;2022-12-18T09:23:01;102183.88;;;5.96;100.00
49122;BME280;35529;44.342;25.944;2022-12-18T09:25:28;102177.56;;;5.98;100.00
49122;BME280;35529;44.342;25.944;2022-12-18T09:27:59;102178.47;;;5.97;100.00
49122;BME280;35529;44.342;25.944;2022-12-18T09:30:25;102178.16;;;6.02;100.00
49122;BME280;35529;44.342;25.944;2022-12-18T09:32:52;102180.16;;;6.10;100.00
49122;BME280;35529;44.342;25.944;2022-12-18T09:35:21;102178.81;;;6.15;100.00
49122;BME280;35529;44.342;25.944;2022-12-18T09:37:47;102181.34;;;6.17;100.00
49122;BME280;35529;44.342;25.944;2022-12-18T09:40:16;102188.28;;;6.18;100.00
49122;BME280;35529;44.342;25.944;2022-12-18T09:42:48;102184.94;;;6.16;100.00
49122;BME280;35529;44.342;25.944;2022-12-18T09:45:18;102188.28;;;6.18;100.00
49122;BME280;35529;44.342;25.944;2022-12-18T09:47:44;102185.53;;;6.19;100.00
49122;BME280;35529;44.342;25.944;2022-12-18T09:50:22;102189.31;;;6.27;100.00
49122;BME280;35529;44.342;25.944;2022-12-18T09:52:51;102191.22;;;6.36;100.00
49122;BME280;35529;44.342;25.944;2022-12-18T10:00:43;102187.31;;;6.51;100.00
49122;BME280;35529;44.342;25.944;2022-12-18T10:03:10;102195.81;;;6.55;100.00
49122;BME280;35529;44.342;25.944;2022-12-18T10:13:33;102209.44;;;6.60;100.00
49122;BME280;35529;44.342;25.944;2022-12-18T10:16:13;102210.31;;;6.61;100.00
49122;BME280;35529;44.342;25.944;2022-12-18T10:21:15;102218.03;;;6.52;100.00
49122;BME280;35529;44.342;25.944;2022-12-18T10:26:10;102228.94;;;6.48;100.00
49122;BME280;35529;44.342;25.944;2022-12-18T10:28:37;102229.06;;;6.46;100.00
49122;BME280;35529;44.342;25.944;2022-12-18T10:31:05;102218.97;;;6.51;100.00
49122;BME280;35529;44.342;25.944;2022-12-18T10:33:31;102213.72;;;6.51;100.00
49122;BME280;35529;44.342;25.944;2022-12-18T10:35:58;102199.97;;;6.58;100.00
49122;BME280;35529;44.342;25.944;2022-12-18T10:38:25;102212.00;;;6.62;100.00
49122;BME280;35529;44.342;25.944;2022-12-18T10:46:01;102217.56;;;6.47;100.00
49122;BME280;35529;44.342;25.944;2022-12-18T10:48:27;102198.25;;;6.47;100.00
49122;BME280;35529;44.342;25.944;2022-12-18T10:50:54;102204.03;;;6.41;100.00
49122;BME280;35529;44.342;25.944;2022-12-18T10:53:24;102207.38;;;6.43;100.00
49122;BME280;35529;44.342;25.944;2022-12-18T10:55:54;102212.91;;;6.40;100.00
49122;BME280;35529;44.342;25.944;2022-12-18T11:06:09;102226.78;;;6.09;100.00
49122;BME280;35529;44.342;25.944;2022-12-18T11:08:35;102227.28;;;6.03;100.00
49122;BME280;35529;44.342;25.944;2022-12-18T11:11:02;102239.88;;;5.99;100.00
49122;BME280;35529;44.342;25.944;2022-12-18T11:13:29;102238.94;;;6.00;100.00
49122;BME280;35529;44.342;25.944;2022-12-18T11:15:55;102248.97;;;5.95;100.00
49122;BME280;35529;44.342;25.944;2022-12-18T11:18:27;102236.38;;;5.87;100.00
49122;BME280;35529;44.342;25.944;2022-12-18T11:20:57;102243.34;;;5.77;100.00
49122;BME280;35529;44.342;25.944;2022-12-18T11:23:25;102252.34;;;5.75;100.00
49122;BME280;35529;44.342;25.944;2022-12-18T11:25:55;102246.94;;;5.76;100.00
49122;BME280;35529;44.342;25.944;2022-12-18T11:28:27;102250.06;;;5.81;100.00
49122;BME280;35529;44.342;25.944;2022-12-18T11:33:39;102261.06;;;5.86;100.00
49122;BME280;35529;44.342;25.944;2022-12-18T11:36:08;102271.72;;;5.85;100.00
49122;BME280;35529;44.342;25.944;2022-12-18T11:38:35;102263.34;;;5.80;100.00
49122;BME280;35529;44.342;25.944;2022-12-18T11:41:07;102265.28;;;5.78;100.00
49122;BME280;35529;44.342;25.944;2022-12-18T11:43:43;102258.31;;;5.77;100.00
49122;BME280;35529;44.342;25.944;2022-12-18T11:46:19;102260.72;;;5.80;100.00
49122;BME280;35529;44.342;25.944;2022-12-18T11:51:35;102268.97;;;5.86;100.00
49122;BME280;35529;44.342;25.944;2022-12-18T11:54:12;102271.16;;;5.81;100.00
49122;BME280;35529;44.342;25.944;2022-12-18T11:56:42;102273.53;;;5.73;100.00
49122;BME280;35529;44.342;25.944;2022-12-18T12:32:11;102290.19;;;5.62;100.00
49122;BME280;35529;44.342;25.944;2022-12-18T12:34:44;102304.56;;;5.58;100.00
49122;BME280;35529;44.342;25.944;2022-12-18T12:39:41;102299.66;;;5.53;100.00
49122;BME280;35529;44.342;25.944;2022-12-18T12:45:25;102312.59;;;5.57;100.00
49122;BME280;35529;44.342;25.944;2022-12-18T12:47:54;102319.16;;;5.51;100.00
49122;BME280;35529;44.342;25.944;2022-12-18T12:50:20;102315.81;;;5.49;100.00
49122;BME280;35529;44.342;25.944;2022-12-18T12:52:54;102319.28;;;5.49;100.00
49122;BME280;35529;44.342;25.944;2022-12-18T12:55:22;102323.81;;;5.47;100.00
49122;BME280;35529;44.342;25.944;2022-12-18T13:00:19;102331.72;;;5.47;100.00
49122;BME280;35529;44.342;25.944;2022-12-18T13:02:47;102330.16;;;5.45;100.00
49122;BME280;35529;44.342;25.944;2022-12-18T13:15:34;102358.97;;;5.24;100.00
49122;BME280;35529;44.342;25.944;2022-12-18T13:18:10;102361.59;;;5.24;100.00
49122;BME280;35529;44.342;25.944;2022-12-18T13:31:15;102365.88;;;5.13;100.00
49122;BME280;35529;44.342;25.944;2022-12-18T13:34:09;102360.66;;;5.00;100.00
49122;BME280;35529;44.342;25.944;2022-12-18T13:36:41;102366.06;;;4.99;100.00
49122;BME280;35529;44.342;25.944;2022-12-18T13:41:43;102382.25;;;5.06;100.00
49122;BME280;35529;44.342;25.944;2022-12-18T13:44:11;102387.91;;;5.12;100.00
49122;BME280;35529;44.342;25.944;2022-12-18T13:51:40;102398.16;;;5.04;100.00
49122;BME280;35529;44.342;25.944;2022-12-18T13:56:42;102409.75;;;5.01;100.00
49122;BME280;35529;44.342;25.944;2022-12-18T14:01:41;102417.88;;;4.98;100.00
49122;BME280;35529;44.342;25.944;2022-12-18T14:04:11;102412.81;;;4.95;100.00
49122;BME280;35529;44.342;25.944;2022-12-18T14:06:38;102421.06;;;4.91;100.00
49122;BME280;35529;44.342;25.944;2022-12-18T14:09:04;102414.47;;;4.85;100.00
49122;BME280;35529;44.342;25.944;2022-12-18T14:11:30;102410.84;;;4.86;100.00
49122;BME280;35529;44.342;25.944;2022-12-18T14:13:57;102424.91;;;4.74;100.00
49122;BME280;35529;44.342;25.944;2022-12-18T14:16:24;102435.94;;;4.79;100.00
49122;BME280;35529;44.342;25.944;2022-12-18T14:18:52;102435.31;;;4.75;100.00
49122;BME280;35529;44.342;25.944;2022-12-18T14:21:25;102452.69;;;4.78;100.00
49122;BME280;35529;44.342;25.944;2022-12-18T14:26:30;102449.97;;;4.66;100.00
49122;BME280;35529;44.342;25.944;2022-12-18T14:28:57;102456.59;;;4.72;100.00
49122;BME280;35529;44.342;25.944;2022-12-18T14:31:26;102461.69;;;4.62;100.00
49122;BME280;35529;44.342;25.944;2022-12-18T14:33:52;102467.34;;;4.56;100.00
49122;BME280;35529;44.342;25.944;2022-12-18T14:36:23;102474.31;;;4.57;100.00
49122;BME280;35529;44.342;25.944;2022-12-18T14:38:50;102471.56;;;4.59;100.00
49122;BME280;35529;44.342;25.944;2022-12-18T14:41:17;102483.38;;;4.53;100.00
49122;BME280;35529;44.342;25.944;2022-12-18T14:43:45;102478.94;;;4.53;100.00
49122;BME280;35529;44.342;25.944;2022-12-18T14:48:56;102490.19;;;4.43;100.00
49122;BME280;35529;44.342;25.944;2022-12-18T14:51:23;102490.53;;;4.38;100.00
49122;BME280;35529;44.342;25.944;2022-12-18T14:53:53;102480.94;;;4.37;100.00
49122;BME280;35529;44.342;25.944;2022-12-18T14:56:28;102484.41;;;4.38;100.00
49122;BME280;35529;44.342;25.944;2022-12-18T14:58:56;102490.31;;;4.41;100.00
49122;BME280;35529;44.342;25.944;2022-12-18T15:03:50;102492.09;;;4.41;100.00
49122;BME280;35529;44.342;25.944;2022-12-18T15:06:36;102493.88;;;4.40;100.00
49122;BME280;35529;44.342;25.944;2022-12-18T15:09:04;102500.59;;;4.44;100.00
49122;BME280;35529;44.342;25.944;2022-12-18T15:14:22;102495.97;;;4.35;100.00
49122;BME280;35529;44.342;25.944;2022-12-18T15:16:53;102503.88;;;4.35;100.00
49122;BME280;35529;44.342;25.944;2022-12-18T15:19:21;102507.56;;;4.32;100.00